sensor_id;sensor_type;location;lat;lon;timestamp;P1;durP1;ratioP1;P2;durP2;ratioP2
1775;SDS011;885;42.626;23.200;2023-05-29T00:02:04;8.13;;;4.77;;
1775;SDS011;885;42.626;23.200;2023-05-29T00:04:31;5.60;;;3.90;;
1775;SDS011;885;42.626;23.200;2023-05-29T00:06:58;6.00;;;5.33;;
1775;SDS011;885;42.626;23.200;2023-05-29T00:09:25;5.40;;;4.80;;
1775;SDS011;885;42.626;23.200;2023-05-29T00:11:53;4.57;;;4.17;;
1775;SDS011;885;42.626;23.200;2023-05-29T00:14:20;6.07;;;4.80;;
1775;SDS011;885;42.626;23.200;2023-05-29T00:16:49;5.77;;;5.27;;
1775;SDS011;885;42.626;23.200;2023-05-29T00:19:16;7.40;;;4.30;;
1775;SDS011;885;42.626;23.200;2023-05-29T00:21:44;7.57;;;5.27;;
1775;SDS011;885;42.626;23.200;2023-05-29T00:24:12;5.73;;;4.83;;
1775;SDS011;885;42.626;23.200;2023-05-29T00:26:39;7.93;;;5.63;;
1775;SDS011;885;42.626;23.200;2023-05-29T00:29:07;5.90;;;4.03;;
1775;SDS011;885;42.626;23.200;2023-05-29T00:31:34;6.50;;;5.30;;
1775;SDS011;885;42.626;23.200;2023-05-29T00:34:02;7.03;;;5.30;;
1775;SDS011;885;42.626;23.200;2023-05-29T00:36:28;5.40;;;4.87;;
1775;SDS011;885;42.626;23.200;2023-05-29T00:38:56;5.67;;;5.07;;
1775;SDS011;885;42.626;23.200;2023-05-29T00:41:23;7.67;;;4.90;;
1775;SDS011;885;42.626;23.200;2023-05-29T00:43:50;6.40;;;5.73;;
1775;SDS011;885;42.626;23.200;2023-05-29T00:46:18;6.10;;;5.10;;
1775;SDS011;885;42.626;23.200;2023-05-29T00:48:45;6.07;;;5.47;;
1775;SDS011;885;42.626;23.200;2023-05-29T00:51:12;6.03;;;4.77;;
1775;SDS011;885;42.626;23.200;2023-05-29T00:53:40;6.47;;;5.83;;
1775;SDS011;885;42.626;23.200;2023-05-29T00:56:10;6.63;;;5.77;;
1775;SDS011;885;42.626;23.200;2023-05-29T00:58:37;9.03;;;5.70;;
1775;SDS011;885;42.626;23.200;2023-05-29T01:01:04;7.27;;;6.10;;
1775;SDS011;885;42.626;23.200;2023-05-29T01:03:32;5.80;;;5.20;;
1775;SDS011;885;42.626;23.200;2023-05-29T01:06:00;7.57;;;5.20;;
1775;SDS011;885;42.626;23.200;2023-05-29T01:08:28;7.63;;;5.53;;
1775;SDS011;885;42.626;23.200;2023-05-29T01:10:56;7.43;;;5.00;;
1775;SDS011;885;42.626;23.200;2023-05-29T01:13:30;8.80;;;5.10;;
1775;SDS011;885;42.626;23.200;2023-05-29T01:16:03;6.20;;;5.17;;
1775;SDS011;885;42.626;23.200;2023-05-29T01:18:39;6.90;;;4.40;;
1775;SDS011;885;42.626;23.200;2023-05-29T01:21:11;6.33;;;5.13;;
1775;SDS011;885;42.626;23.200;2023-05-29T01:23:51;7.43;;;5.07;;
1775;SDS011;885;42.626;23.200;2023-05-29T01:26:34;4.90;;;4.43;;
1775;SDS011;885;42.626;23.200;2023-05-29T01:29:18;7.40;;;5.57;;
1775;SDS011;885;42.626;23.200;2023-05-29T01:31:50;10.60;;;6.20;;
1775;SDS011;885;42.626;23.200;2023-05-29T01:34:17;8.70;;;6.03;;
1775;SDS011;885;42.626;23.200;2023-05-29T01:36:44;9.07;;;6.57;;
1775;SDS011;885;42.626;23.200;2023-05-29T01:39:11;9.13;;;7.30;;
1775;SDS011;885;42.626;23.200;2023-05-29T01:41:40;7.73;;;6.97;;
1775;SDS011;885;42.626;23.200;2023-05-29T01:44:08;7.43;;;6.73;;
1775;SDS011;885;42.626;23.200;2023-05-29T01:46:36;13.00;;;7.77;;
1775;SDS011;885;42.626;23.200;2023-05-29T01:49:04;9.00;;;7.40;;
1775;SDS011;885;42.626;23.200;2023-05-29T01:51:31;13.43;;;9.17;;
1775;SDS011;885;42.626;23.200;2023-05-29T01:53:58;10.13;;;8.87;;
1775;SDS011;885;42.626;23.200;2023-05-29T01:56:26;10.13;;;8.07;;
1775;SDS011;885;42.626;23.200;2023-05-29T01:58:55;9.83;;;8.63;;
1775;SDS011;885;42.626;23.200;2023-05-29T02:01:22;12.03;;;10.37;;
1775;SDS011;885;42.626;23.200;2023-05-29T02:03:49;10.93;;;9.80;;
1775;SDS011;885;42.626;23.200;2023-05-29T02:06:17;14.53;;;13.03;;
1775;SDS011;885;42.626;23.200;2023-05-29T02:08:44;12.87;;;11.43;;
1775;SDS011;885;42.626;23.200;2023-05-29T02:11:10;15.50;;;12.90;;
1775;SDS011;885;42.626;23.200;2023-05-29T02:13:37;14.23;;;12.73;;
1775;SDS011;885;42.626;23.200;2023-05-29T02:16:06;14.23;;;12.73;;
1775;SDS011;885;42.626;23.200;2023-05-29T02:18:33;12.57;;;11.20;;
1775;SDS011;885;42.626;23.200;2023-05-29T02:21:00;12.57;;;10.53;;
1775;SDS011;885;42.626;23.200;2023-05-29T02:23:27;13.80;;;11.97;;
1775;SDS011;885;42.626;23.200;2023-05-29T02:25:54;20.60;;;11.13;;
1775;SDS011;885;42.626;23.200;2023-05-29T02:28:21;12.00;;;10.33;;
1775;SDS011;885;42.626;23.200;2023-05-29T02:30:48;11.90;;;10.70;;
1775;SDS011;885;42.626;23.200;2023-05-29T02:33:16;12.50;;;10.10;;
1775;SDS011;885;42.626;23.200;2023-05-29T02:35:43;11.83;;;10.17;;
1775;SDS011;885;42.626;23.200;2023-05-29T02:38:09;10.23;;;9.17;;
1775;SDS011;885;42.626;23.200;2023-05-29T02:40:36;11.37;;;10.23;;
1775;SDS011;885;42.626;23.200;2023-05-29T02:43:04;10.70;;;9.60;;
1775;SDS011;885;42.626;23.200;2023-05-29T02:45:31;11.80;;;9.57;;
1775;SDS011;885;42.626;23.200;2023-05-29T02:47:58;10.33;;;9.30;;
1775;SDS011;885;42.626;23.200;2023-05-29T02:50:26;9.73;;;8.73;;
1775;SDS011;885;42.626;23.200;2023-05-29T02:52:54;10.77;;;6.70;;
1775;SDS011;885;42.626;23.200;2023-05-29T02:55:20;10.83;;;8.30;;
1775;SDS011;885;42.626;23.200;2023-05-29T02:57:47;9.43;;;8.17;;
1775;SDS011;885;42.626;23.200;2023-05-29T03:00:18;11.07;;;7.70;;
1775;SDS011;885;42.626;23.200;2023-05-29T03:02:45;6.87;;;6.17;;
1775;SDS011;885;42.626;23.200;2023-05-29T03:05:12;6.50;;;5.90;;
1775;SDS011;885;42.626;23.200;2023-05-29T03:07:40;6.50;;;5.77;;
1775;SDS011;885;42.626;23.200;2023-05-29T03:10:08;6.50;;;5.77;;
1775;SDS011;885;42.626;23.200;2023-05-29T03:12:35;6.20;;;5.53;;
1775;SDS011;885;42.626;23.200;2023-05-29T03:15:02;7.43;;;5.80;;
1775;SDS011;885;42.626;23.200;2023-05-29T03:17:30;7.80;;;7.00;;
1775;SDS011;885;42.626;23.200;2023-05-29T03:19:56;6.23;;;5.53;;
1775;SDS011;885;42.626;23.200;2023-05-29T03:22:23;7.43;;;5.63;;
1775;SDS011;885;42.626;23.200;2023-05-29T03:24:51;6.30;;;5.70;;
1775;SDS011;885;42.626;23.200;2023-05-29T03:27:18;7.33;;;6.57;;
1775;SDS011;885;42.626;23.200;2023-05-29T03:29:45;8.40;;;5.77;;
1775;SDS011;885;42.626;23.200;2023-05-29T03:32:12;7.80;;;6.67;;
1775;SDS011;885;42.626;23.200;2023-05-29T03:34:39;8.43;;;7.60;;
1775;SDS011;885;42.626;23.200;2023-05-29T03:37:06;8.53;;;7.83;;
1775;SDS011;885;42.626;23.200;2023-05-29T03:39:32;8.30;;;7.27;;
1775;SDS011;885;42.626;23.200;2023-05-29T03:42:00;8.43;;;6.57;;
1775;SDS011;885;42.626;23.200;2023-05-29T03:44:28;6.77;;;6.13;;
1775;SDS011;885;42.626;23.200;2023-05-29T03:46:54;8.00;;;6.93;;
1775;SDS011;885;42.626;23.200;2023-05-29T03:49:21;8.80;;;7.87;;
1775;SDS011;885;42.626;23.200;2023-05-29T03:51:49;6.27;;;5.67;;
1775;SDS011;885;42.626;23.200;2023-05-29T03:54:16;8.70;;;5.90;;
1775;SDS011;885;42.626;23.200;2023-05-29T03:56:42;6.13;;;5.53;;
1775;SDS011;885;42.626;23.200;2023-05-29T03:59:11;5.97;;;5.47;;
1775;SDS011;885;42.626;23.200;2023-05-29T04:01:37;6.67;;;5.30;;
1775;SDS011;885;42.626;23.200;2023-05-29T04:04:04;9.57;;;6.50;;
1775;SDS011;885;42.626;23.200;2023-05-29T04:06:31;8.00;;;5.43;;
1775;SDS011;885;42.626;23.200;2023-05-29T04:08:58;6.77;;;6.07;;
1775;SDS011;885;42.626;23.200;2023-05-29T04:11:25;5.40;;;4.90;;
1775;SDS011;885;42.626;23.200;2023-05-29T04:13:51;7.73;;;5.43;;
1775;SDS011;885;42.626;23.200;2023-05-29T04:16:19;7.53;;;5.97;;
1775;SDS011;885;42.626;23.200;2023-05-29T04:18:46;7.47;;;5.87;;
1775;SDS011;885;42.626;23.200;2023-05-29T04:21:13;6.77;;;5.50;;
1775;SDS011;885;42.626;23.200;2023-05-29T04:23:39;6.07;;;4.70;;
1775;SDS011;885;42.626;23.200;2023-05-29T04:26:06;9.17;;;5.60;;
1775;SDS011;885;42.626;23.200;2023-05-29T04:28:34;5.53;;;5.03;;
1775;SDS011;885;42.626;23.200;2023-05-29T04:31:02;5.77;;;5.17;;
1775;SDS011;885;42.626;23.200;2023-05-29T04:33:31;8.07;;;5.07;;
1775;SDS011;885;42.626;23.200;2023-05-29T04:36:01;6.33;;;5.73;;
1775;SDS011;885;42.626;23.200;2023-05-29T04:38:28;6.53;;;5.87;;
1775;SDS011;885;42.626;23.200;2023-05-29T04:40:56;6.70;;;5.80;;
1775;SDS011;885;42.626;23.200;2023-05-29T04:43:23;9.97;;;8.17;;
1775;SDS011;885;42.626;23.200;2023-05-29T04:45:51;7.83;;;6.20;;
1775;SDS011;885;42.626;23.200;2023-05-29T04:48:18;6.30;;;5.70;;
1775;SDS011;885;42.626;23.200;2023-05-29T04:50:46;8.80;;;6.57;;
1775;SDS011;885;42.626;23.200;2023-05-29T04:53:13;6.83;;;5.20;;
1775;SDS011;885;42.626;23.200;2023-05-29T04:55:40;8.53;;;5.60;;
1775;SDS011;885;42.626;23.200;2023-05-29T04:58:07;5.60;;;5.00;;
1775;SDS011;885;42.626;23.200;2023-05-29T05:00:34;6.33;;;5.73;;
1775;SDS011;885;42.626;23.200;2023-05-29T05:03:00;6.63;;;5.90;;
1775;SDS011;885;42.626;23.200;2023-05-29T05:05:27;6.90;;;5.00;;
1775;SDS011;885;42.626;23.200;2023-05-29T05:07:56;8.97;;;5.20;;
1775;SDS011;885;42.626;23.200;2023-05-29T05:10:22;6.30;;;5.10;;
1775;SDS011;885;42.626;23.200;2023-05-29T05:12:49;6.10;;;5.53;;
1775;SDS011;885;42.626;23.200;2023-05-29T05:15:16;11.10;;;6.40;;
1775;SDS011;885;42.626;23.200;2023-05-29T05:17:44;6.60;;;5.00;;
1775;SDS011;885;42.626;23.200;2023-05-29T05:20:11;6.80;;;6.03;;
1775;SDS011;885;42.626;23.200;2023-05-29T05:22:38;5.83;;;5.10;;
1775;SDS011;885;42.626;23.200;2023-05-29T05:25:07;7.10;;;6.40;;
1775;SDS011;885;42.626;23.200;2023-05-29T05:27:34;8.33;;;6.70;;
1775;SDS011;885;42.626;23.200;2023-05-29T05:30:01;12.33;;;7.17;;
1775;SDS011;885;42.626;23.200;2023-05-29T05:32:28;7.47;;;6.30;;
1775;SDS011;885;42.626;23.200;2023-05-29T05:34:55;7.73;;;6.80;;
1775;SDS011;885;42.626;23.200;2023-05-29T05:37:22;7.77;;;7.00;;
1775;SDS011;885;42.626;23.200;2023-05-29T05:39:49;8.80;;;7.90;;
1775;SDS011;885;42.626;23.200;2023-05-29T05:42:17;7.50;;;6.77;;
1775;SDS011;885;42.626;23.200;2023-05-29T05:44:44;9.73;;;8.60;;
1775;SDS011;885;42.626;23.200;2023-05-29T05:47:11;12.20;;;8.00;;
1775;SDS011;885;42.626;23.200;2023-05-29T05:49:38;13.13;;;11.83;;
1775;SDS011;885;42.626;23.200;2023-05-29T05:52:05;9.53;;;8.53;;
1775;SDS011;885;42.626;23.200;2023-05-29T05:54:32;16.47;;;12.63;;
1775;SDS011;885;42.626;23.200;2023-05-29T05:56:59;10.53;;;8.90;;
1775;SDS011;885;42.626;23.200;2023-05-29T05:59:29;11.77;;;8.17;;
1775;SDS011;885;42.626;23.200;2023-05-29T06:01:56;12.67;;;7.67;;
1775;SDS011;885;42.626;23.200;2023-05-29T06:04:23;8.73;;;7.90;;
1775;SDS011;885;42.626;23.200;2023-05-29T06:06:50;9.03;;;8.00;;
1775;SDS011;885;42.626;23.200;2023-05-29T06:09:16;24.23;;;10.87;;
1775;SDS011;885;42.626;23.200;2023-05-29T06:11:44;9.83;;;8.60;;
1775;SDS011;885;42.626;23.200;2023-05-29T06:14:10;10.97;;;8.33;;
1775;SDS011;885;42.626;23.200;2023-05-29T06:16:39;12.20;;;9.43;;
1775;SDS011;885;42.626;23.200;2023-05-29T06:19:05;12.30;;;9.03;;
1775;SDS011;885;42.626;23.200;2023-05-29T06:21:32;9.10;;;8.20;;
1775;SDS011;885;42.626;23.200;2023-05-29T06:23:59;10.30;;;7.90;;
1775;SDS011;885;42.626;23.200;2023-05-29T06:26:26;8.83;;;7.43;;
1775;SDS011;885;42.626;23.200;2023-05-29T06:28:53;9.40;;;8.50;;
1775;SDS011;885;42.626;23.200;2023-05-29T06:31:20;7.37;;;6.63;;
1775;SDS011;885;42.626;23.200;2023-05-29T06:33:48;9.97;;;7.13;;
1775;SDS011;885;42.626;23.200;2023-05-29T06:36:15;10.87;;;6.30;;
1775;SDS011;885;42.626;23.200;2023-05-29T06:38:45;7.17;;;6.47;;
1775;SDS011;885;42.626;23.200;2023-05-29T06:41:12;8.73;;;7.83;;
1775;SDS011;885;42.626;23.200;2023-05-29T06:43:39;9.80;;;5.80;;
1775;SDS011;885;42.626;23.200;2023-05-29T06:46:05;8.23;;;6.80;;
1775;SDS011;885;42.626;23.200;2023-05-29T06:48:32;6.97;;;6.23;;
1775;SDS011;885;42.626;23.200;2023-05-29T06:51:01;7.33;;;6.57;;
1775;SDS011;885;42.626;23.200;2023-05-29T06:53:34;10.50;;;7.10;;
1775;SDS011;885;42.626;23.200;2023-05-29T06:56:01;7.10;;;6.40;;
1775;SDS011;885;42.626;23.200;2023-05-29T06:58:29;6.37;;;5.77;;
1775;SDS011;885;42.626;23.200;2023-05-29T07:00:56;6.37;;;5.47;;
1775;SDS011;885;42.626;23.200;2023-05-29T07:03:23;7.33;;;6.63;;
1775;SDS011;885;42.626;23.200;2023-05-29T07:05:51;6.97;;;6.27;;
1775;SDS011;885;42.626;23.200;2023-05-29T07:08:19;11.80;;;9.70;;
1775;SDS011;885;42.626;23.200;2023-05-29T07:10:46;7.67;;;6.80;;
1775;SDS011;885;42.626;23.200;2023-05-29T07:13:14;9.33;;;8.33;;
1775;SDS011;885;42.626;23.200;2023-05-29T07:15:41;6.10;;;4.83;;
1775;SDS011;885;42.626;23.200;2023-05-29T07:18:08;8.73;;;6.60;;
1775;SDS011;885;42.626;23.200;2023-05-29T07:20:35;7.03;;;5.50;;
1775;SDS011;885;42.626;23.200;2023-05-29T07:23:03;4.93;;;4.10;;
1775;SDS011;885;42.626;23.200;2023-05-29T07:25:31;5.30;;;4.77;;
1775;SDS011;885;42.626;23.200;2023-05-29T07:27:58;4.53;;;4.13;;
1775;SDS011;885;42.626;23.200;2023-05-29T07:30:25;4.97;;;3.97;;
1775;SDS011;885;42.626;23.200;2023-05-29T07:32:52;4.30;;;3.90;;
1775;SDS011;885;42.626;23.200;2023-05-29T07:35:18;4.60;;;4.10;;
1775;SDS011;885;42.626;23.200;2023-05-29T07:37:47;5.90;;;4.47;;
1775;SDS011;885;42.626;23.200;2023-05-29T07:40:16;4.93;;;4.53;;
1775;SDS011;885;42.626;23.200;2023-05-29T07:42:44;5.47;;;4.20;;
1775;SDS011;885;42.626;23.200;2023-05-29T07:45:11;5.40;;;4.90;;
1775;SDS011;885;42.626;23.200;2023-05-29T07:47:38;4.40;;;4.00;;
1775;SDS011;885;42.626;23.200;2023-05-29T07:50:05;6.20;;;4.53;;
1775;SDS011;885;42.626;23.200;2023-05-29T07:52:32;6.40;;;4.20;;
1775;SDS011;885;42.626;23.200;2023-05-29T07:54:59;4.67;;;4.17;;
1775;SDS011;885;42.626;23.200;2023-05-29T07:57:26;5.67;;;4.37;;
1775;SDS011;885;42.626;23.200;2023-05-29T07:59:55;4.87;;;4.20;;
1775;SDS011;885;42.626;23.200;2023-05-29T08:02:22;5.20;;;4.70;;
1775;SDS011;885;42.626;23.200;2023-05-29T08:04:48;5.20;;;3.83;;
1775;SDS011;885;42.626;23.200;2023-05-29T08:07:15;4.30;;;3.90;;
1775;SDS011;885;42.626;23.200;2023-05-29T08:09:42;4.13;;;3.67;;
1775;SDS011;885;42.626;23.200;2023-05-29T08:12:08;4.87;;;4.30;;
1775;SDS011;885;42.626;23.200;2023-05-29T08:14:35;4.80;;;4.30;;
1775;SDS011;885;42.626;23.200;2023-05-29T08:17:04;6.00;;;5.10;;
1775;SDS011;885;42.626;23.200;2023-05-29T08:19:32;6.70;;;4.13;;
1775;SDS011;885;42.626;23.200;2023-05-29T08:22:00;5.60;;;4.40;;
1775;SDS011;885;42.626;23.200;2023-05-29T08:24:27;6.43;;;5.80;;
1775;SDS011;885;42.626;23.200;2023-05-29T08:26:54;4.50;;;4.10;;
1775;SDS011;885;42.626;23.200;2023-05-29T08:29:20;6.33;;;4.07;;
1775;SDS011;885;42.626;23.200;2023-05-29T08:31:47;6.13;;;4.27;;
1775;SDS011;885;42.626;23.200;2023-05-29T08:34:15;4.73;;;4.07;;
1775;SDS011;885;42.626;23.200;2023-05-29T08:36:42;4.50;;;4.10;;
1775;SDS011;885;42.626;23.200;2023-05-29T08:39:10;5.70;;;3.63;;
1775;SDS011;885;42.626;23.200;2023-05-29T08:41:41;5.80;;;3.87;;
1775;SDS011;885;42.626;23.200;2023-05-29T08:44:15;3.70;;;3.40;;
1775;SDS011;885;42.626;23.200;2023-05-29T08:46:47;4.33;;;4.00;;
1775;SDS011;885;42.626;23.200;2023-05-29T08:49:19;5.03;;;4.13;;
1775;SDS011;885;42.626;23.200;2023-05-29T08:51:47;4.93;;;4.43;;
1775;SDS011;885;42.626;23.200;2023-05-29T08:54:19;5.87;;;5.27;;
1775;SDS011;885;42.626;23.200;2023-05-29T08:56:46;7.80;;;5.50;;
1775;SDS011;885;42.626;23.200;2023-05-29T08:59:13;4.60;;;4.20;;
1775;SDS011;885;42.626;23.200;2023-05-29T09:01:41;5.70;;;4.20;;
1775;SDS011;885;42.626;23.200;2023-05-29T09:04:08;5.00;;;4.03;;
1775;SDS011;885;42.626;23.200;2023-05-29T09:06:37;5.53;;;4.07;;
1775;SDS011;885;42.626;23.200;2023-05-29T09:09:06;4.43;;;3.40;;
1775;SDS011;885;42.626;23.200;2023-05-29T09:11:33;6.40;;;4.00;;
1775;SDS011;885;42.626;23.200;2023-05-29T09:13:59;5.70;;;5.17;;
1775;SDS011;885;42.626;23.200;2023-05-29T09:16:27;4.77;;;4.37;;
1775;SDS011;885;42.626;23.200;2023-05-29T09:18:59;6.60;;;4.63;;
1775;SDS011;885;42.626;23.200;2023-05-29T09:21:31;6.83;;;5.70;;
1775;SDS011;885;42.626;23.200;2023-05-29T09:24:04;7.83;;;4.30;;
1775;SDS011;885;42.626;23.200;2023-05-29T09:26:31;5.30;;;4.70;;
1775;SDS011;885;42.626;23.200;2023-05-29T09:28:58;7.70;;;4.57;;
1775;SDS011;885;42.626;23.200;2023-05-29T09:31:26;4.80;;;4.40;;
1775;SDS011;885;42.626;23.200;2023-05-29T09:33:53;4.60;;;4.20;;
1775;SDS011;885;42.626;23.200;2023-05-29T09:36:20;5.33;;;4.50;;
1775;SDS011;885;42.626;23.200;2023-05-29T09:38:48;5.23;;;4.73;;
1775;SDS011;885;42.626;23.200;2023-05-29T09:41:21;5.37;;;4.90;;
1775;SDS011;885;42.626;23.200;2023-05-29T09:43:48;5.07;;;4.57;;
1775;SDS011;885;42.626;23.200;2023-05-29T09:46:15;6.13;;;4.30;;
1775;SDS011;885;42.626;23.200;2023-05-29T09:48:43;5.20;;;4.37;;
1775;SDS011;885;42.626;23.200;2023-05-29T09:51:18;6.03;;;5.00;;
1775;SDS011;885;42.626;23.200;2023-05-29T09:53:47;6.00;;;4.90;;
1775;SDS011;885;42.626;23.200;2023-05-29T09:56:15;4.87;;;4.40;;
1775;SDS011;885;42.626;23.200;2023-05-29T09:58:45;5.00;;;4.60;;
1775;SDS011;885;42.626;23.200;2023-05-29T10:01:13;4.97;;;4.53;;
1775;SDS011;885;42.626;23.200;2023-05-29T10:03:40;5.37;;;3.90;;
1775;SDS011;885;42.626;23.200;2023-05-29T10:06:07;5.70;;;4.37;;
1775;SDS011;885;42.626;23.200;2023-05-29T10:08:37;4.10;;;3.70;;
1775;SDS011;885;42.626;23.200;2023-05-29T10:11:07;5.37;;;3.87;;
1775;SDS011;885;42.626;23.200;2023-05-29T10:13:41;4.40;;;4.00;;
1775;SDS011;885;42.626;23.200;2023-05-29T10:16:15;4.90;;;4.10;;
1775;SDS011;885;42.626;23.200;2023-05-29T10:18:44;4.63;;;4.20;;
1775;SDS011;885;42.626;23.200;2023-05-29T10:21:16;5.90;;;3.83;;
1775;SDS011;885;42.626;23.200;2023-05-29T10:23:45;5.93;;;4.93;;
1775;SDS011;885;42.626;23.200;2023-05-29T10:26:14;5.03;;;3.97;;
1775;SDS011;885;42.626;23.200;2023-05-29T10:28:46;4.83;;;4.20;;
1775;SDS011;885;42.626;23.200;2023-05-29T10:31:24;4.03;;;3.63;;
1775;SDS011;885;42.626;23.200;2023-05-29T10:34:00;4.63;;;4.23;;
1775;SDS011;885;42.626;23.200;2023-05-29T10:36:35;4.60;;;3.90;;
1775;SDS011;885;42.626;23.200;2023-05-29T10:39:08;4.10;;;3.43;;
1775;SDS011;885;42.626;23.200;2023-05-29T10:41:35;5.17;;;4.67;;
1775;SDS011;885;42.626;23.200;2023-05-29T10:47:13;4.23;;;3.83;;
1775;SDS011;885;42.626;23.200;2023-05-29T10:49:49;5.37;;;4.10;;
1775;SDS011;885;42.626;23.200;2023-05-29T10:52:18;4.83;;;4.30;;
1775;SDS011;885;42.626;23.200;2023-05-29T10:54:52;6.67;;;4.37;;
1775;SDS011;885;42.626;23.200;2023-05-29T10:57:22;6.23;;;4.27;;
1775;SDS011;885;42.626;23.200;2023-05-29T10:59:57;4.80;;;4.40;;
1775;SDS011;885;42.626;23.200;2023-05-29T11:02:26;3.87;;;3.57;;
1775;SDS011;885;42.626;23.200;2023-05-29T11:05:05;6.33;;;3.60;;
1775;SDS011;885;42.626;23.200;2023-05-29T11:07:50;4.30;;;3.90;;
1775;SDS011;885;42.626;23.200;2023-05-29T11:10:30;6.97;;;4.33;;
1775;SDS011;885;42.626;23.200;2023-05-29T11:13:07;8.30;;;4.27;;
1775;SDS011;885;42.626;23.200;2023-05-29T11:15:34;3.87;;;3.57;;
1775;SDS011;885;42.626;23.200;2023-05-29T11:18:07;5.47;;;3.23;;
1775;SDS011;885;42.626;23.200;2023-05-29T11:20:41;4.53;;;3.83;;
1775;SDS011;885;42.626;23.200;2023-05-29T11:23:14;7.73;;;4.67;;
1775;SDS011;885;42.626;23.200;2023-05-29T11:25:44;4.73;;;3.90;;
1775;SDS011;885;42.626;23.200;2023-05-29T11:28:13;6.13;;;4.27;;
1775;SDS011;885;42.626;23.200;2023-05-29T11:30:44;7.23;;;4.03;;
1775;SDS011;885;42.626;23.200;2023-05-29T11:33:16;4.33;;;4.03;;
1775;SDS011;885;42.626;23.200;2023-05-29T11:35:51;4.20;;;3.80;;
1775;SDS011;885;42.626;23.200;2023-05-29T11:38:22;5.40;;;4.60;;
1775;SDS011;885;42.626;23.200;2023-05-29T11:40:49;4.77;;;4.37;;
1775;SDS011;885;42.626;23.200;2023-05-29T11:43:16;8.00;;;4.13;;
1775;SDS011;885;42.626;23.200;2023-05-29T11:45:43;4.13;;;3.73;;
1775;SDS011;885;42.626;23.200;2023-05-29T11:48:10;5.13;;;4.07;;
1775;SDS011;885;42.626;23.200;2023-05-29T11:50:38;3.80;;;3.50;;
1775;SDS011;885;42.626;23.200;2023-05-29T11:53:05;4.63;;;3.90;;
1775;SDS011;885;42.626;23.200;2023-05-29T11:55:33;4.20;;;3.80;;
1775;SDS011;885;42.626;23.200;2023-05-29T11:58:00;10.70;;;7.30;;
1775;SDS011;885;42.626;23.200;2023-05-29T12:00:30;5.57;;;5.07;;
1775;SDS011;885;42.626;23.200;2023-05-29T12:02:58;6.37;;;5.87;;
1775;SDS011;885;42.626;23.200;2023-05-29T12:05:28;6.57;;;4.67;;
1775;SDS011;885;42.626;23.200;2023-05-29T12:07:57;5.80;;;4.10;;
1775;SDS011;885;42.626;23.200;2023-05-29T12:10:26;6.83;;;5.10;;
1775;SDS011;885;42.626;23.200;2023-05-29T12:12:53;5.47;;;3.30;;
1775;SDS011;885;42.626;23.200;2023-05-29T12:15:21;6.17;;;4.23;;
1775;SDS011;885;42.626;23.200;2023-05-29T12:17:48;4.70;;;3.83;;
1775;SDS011;885;42.626;23.200;2023-05-29T12:20:16;5.80;;;4.33;;
1775;SDS011;885;42.626;23.200;2023-05-29T12:22:44;4.30;;;3.90;;
1775;SDS011;885;42.626;23.200;2023-05-29T12:25:14;4.20;;;3.80;;
1775;SDS011;885;42.626;23.200;2023-05-29T12:27:42;4.83;;;4.33;;
1775;SDS011;885;42.626;23.200;2023-05-29T12:30:12;6.30;;;4.50;;
1775;SDS011;885;42.626;23.200;2023-05-29T12:32:41;5.37;;;4.40;;
1775;SDS011;885;42.626;23.200;2023-05-29T12:35:10;6.50;;;5.23;;
1775;SDS011;885;42.626;23.200;2023-05-29T12:37:42;5.37;;;4.80;;
1775;SDS011;885;42.626;23.200;2023-05-29T12:40:10;5.80;;;4.37;;
1775;SDS011;885;42.626;23.200;2023-05-29T12:42:39;6.17;;;4.90;;
1775;SDS011;885;42.626;23.200;2023-05-29T12:45:06;5.90;;;5.17;;
1775;SDS011;885;42.626;23.200;2023-05-29T12:47:34;6.83;;;4.80;;
1775;SDS011;885;42.626;23.200;2023-05-29T12:50:04;6.67;;;5.43;;
1775;SDS011;885;42.626;23.200;2023-05-29T12:52:41;11.10;;;5.77;;
1775;SDS011;885;42.626;23.200;2023-05-29T12:55:08;6.90;;;5.30;;
1775;SDS011;885;42.626;23.200;2023-05-29T12:57:35;6.47;;;5.17;;
1775;SDS011;885;42.626;23.200;2023-05-29T13:00:03;4.77;;;4.47;;
1775;SDS011;885;42.626;23.200;2023-05-29T13:02:32;5.60;;;4.30;;
1775;SDS011;885;42.626;23.200;2023-05-29T13:04:58;6.63;;;5.23;;
1775;SDS011;885;42.626;23.200;2023-05-29T13:07:25;5.87;;;5.30;;
1775;SDS011;885;42.626;23.200;2023-05-29T13:09:53;6.00;;;5.40;;
1775;SDS011;885;42.626;23.200;2023-05-29T13:12:20;6.43;;;5.83;;
1775;SDS011;885;42.626;23.200;2023-05-29T13:14:46;5.57;;;5.07;;
1775;SDS011;885;42.626;23.200;2023-05-29T13:17:15;5.93;;;5.00;;
1775;SDS011;885;42.626;23.200;2023-05-29T13:19:42;5.90;;;4.50;;
1775;SDS011;885;42.626;23.200;2023-05-29T13:22:09;5.40;;;4.90;;
1775;SDS011;885;42.626;23.200;2023-05-29T13:24:36;7.67;;;5.07;;
1775;SDS011;885;42.626;23.200;2023-05-29T13:27:02;6.60;;;5.27;;
1775;SDS011;885;42.626;23.200;2023-05-29T13:29:30;6.20;;;4.97;;
1775;SDS011;885;42.626;23.200;2023-05-29T13:31:57;5.27;;;4.80;;
1775;SDS011;885;42.626;23.200;2023-05-29T13:34:25;7.33;;;5.60;;
1775;SDS011;885;42.626;23.200;2023-05-29T13:36:53;7.20;;;4.60;;
1775;SDS011;885;42.626;23.200;2023-05-29T13:39:20;5.23;;;4.73;;
1775;SDS011;885;42.626;23.200;2023-05-29T13:41:47;6.13;;;4.90;;
1775;SDS011;885;42.626;23.200;2023-05-29T13:44:14;5.47;;;4.90;;
1775;SDS011;885;42.626;23.200;2023-05-29T13:46:41;5.93;;;5.00;;
1775;SDS011;885;42.626;23.200;2023-05-29T13:49:08;5.73;;;5.13;;
1775;SDS011;885;42.626;23.200;2023-05-29T13:51:36;7.40;;;5.87;;
1775;SDS011;885;42.626;23.200;2023-05-29T13:54:02;5.80;;;5.20;;
1775;SDS011;885;42.626;23.200;2023-05-29T13:56:29;5.63;;;5.13;;
1775;SDS011;885;42.626;23.200;2023-05-29T13:58:56;6.70;;;5.20;;
1775;SDS011;885;42.626;23.200;2023-05-29T14:01:28;6.20;;;5.60;;
1775;SDS011;885;42.626;23.200;2023-05-29T14:03:55;5.77;;;5.27;;
1775;SDS011;885;42.626;23.200;2023-05-29T14:06:22;6.37;;;5.80;;
1775;SDS011;885;42.626;23.200;2023-05-29T14:08:50;6.33;;;5.67;;
1775;SDS011;885;42.626;23.200;2023-05-29T14:11:17;5.97;;;5.37;;
1775;SDS011;885;42.626;23.200;2023-05-29T14:13:44;7.07;;;5.60;;
1775;SDS011;885;42.626;23.200;2023-05-29T14:16:11;5.60;;;5.10;;
1775;SDS011;885;42.626;23.200;2023-05-29T14:18:39;6.70;;;6.00;;
1775;SDS011;885;42.626;23.200;2023-05-29T14:21:06;5.83;;;5.33;;
1775;SDS011;885;42.626;23.200;2023-05-29T14:23:33;5.87;;;5.33;;
1775;SDS011;885;42.626;23.200;2023-05-29T14:26:02;6.30;;;5.70;;
1775;SDS011;885;42.626;23.200;2023-05-29T14:28:29;6.23;;;5.63;;
1775;SDS011;885;42.626;23.200;2023-05-29T14:30:55;5.57;;;4.97;;
1775;SDS011;885;42.626;23.200;2023-05-29T14:33:22;6.53;;;5.67;;
1775;SDS011;885;42.626;23.200;2023-05-29T14:35:51;7.20;;;4.43;;
1775;SDS011;885;42.626;23.200;2023-05-29T14:38:17;7.07;;;5.33;;
1775;SDS011;885;42.626;23.200;2023-05-29T14:40:44;3.70;;;3.40;;
1775;SDS011;885;42.626;23.200;2023-05-29T14:43:12;4.50;;;3.20;;
1775;SDS011;885;42.626;23.200;2023-05-29T14:45:39;2.23;;;2.03;;
1775;SDS011;885;42.626;23.200;2023-05-29T14:48:06;3.07;;;2.70;;
1775;SDS011;885;42.626;23.200;2023-05-29T14:50:33;4.00;;;2.97;;
1775;SDS011;885;42.626;23.200;2023-05-29T14:53:00;3.30;;;2.30;;
1775;SDS011;885;42.626;23.200;2023-05-29T14:55:26;5.30;;;3.27;;
1775;SDS011;885;42.626;23.200;2023-05-29T14:57:53;3.07;;;2.40;;
1775;SDS011;885;42.626;23.200;2023-05-29T15:00:21;3.30;;;2.13;;
1775;SDS011;885;42.626;23.200;2023-05-29T15:02:48;3.97;;;2.67;;
1775;SDS011;885;42.626;23.200;2023-05-29T15:05:15;3.83;;;3.40;;
1775;SDS011;885;42.626;23.200;2023-05-29T15:07:43;5.13;;;3.87;;
1775;SDS011;885;42.626;23.200;2023-05-29T15:10:10;5.33;;;3.33;;
1775;SDS011;885;42.626;23.200;2023-05-29T15:12:37;5.73;;;3.80;;
1775;SDS011;885;42.626;23.200;2023-05-29T15:15:04;4.47;;;3.20;;
1775;SDS011;885;42.626;23.200;2023-05-29T15:17:33;5.20;;;3.40;;
1775;SDS011;885;42.626;23.200;2023-05-29T15:20:01;6.77;;;3.50;;
1775;SDS011;885;42.626;23.200;2023-05-29T15:22:28;4.53;;;3.70;;